Fowlston, Georgia
Current Conditions -  °F | °C
As of 6:55 PM on Saturday 20 Dec 2014 (Local Time) from K2J9 Reporting Station
Overcast Overcast  
Wind Chill: 13°   Ceiling: 6000
Heat Index: 13°   Visibility: 10mi
Dew Point: 10°   Wind: 3mph
Humidity: 82%   Direction: 10°N
Pressure: 30.12"   Gusts: NA
Location:  30.79°N, 84.55°W
Report Text: K2J9 202255Z AUTO 01003KT 10SM OVC060 13/10 A3012 RMK AO1 P0020
Loading
Personal Weather Stations






























Interactive Weather Map New forecast layout! Learn more

10-Day Weather Forecast

Advertisements
Track Severe Weather on mobile